Terminal Aerodrome Forecast
Issued by NWS

Home | Current Version | Previous Version | Graphics & Text | Print | Product List | Glossary On
Versions: 1 2 3 4 5 6 7 8 9 10 11 12 13 14 15 16
852
FTUS43 KMPX 271120
TAFRWF
TAF
KRWF 271120Z 2712/2812 08005KT P6SM VCSH SCT050 OVC080
      TEMPO 2714/2718 -TSRA BKN025CB
     FM272100 34005KT P6SM VCSH BKN050 OVC100
     FM280700 36005KT 5SM -SHRA BR SCT015 OVC030=

USA.gov is the U.S. government's official web portal to all federal, state and local government web resources and services.